sensor_id;sensor_type;location;lat;lon;timestamp;pressure;altitude;pressure_sealevel;temperature;humidity
71239;BME280;61342;51.442;7.370;2022-12-24T00:00:11;99048.38;;;12.10;87.28
71239;BME280;61342;51.442;7.370;2022-12-24T00:01:12;99038.19;;;12.09;87.04
71239;BME280;61342;51.442;7.370;2022-12-24T00:02:12;99054.91;;;12.10;87.03
71239;BME280;61342;51.442;7.370;2022-12-24T00:03:13;99038.00;;;12.07;87.06
71239;BME280;61342;51.442;7.370;2022-12-24T00:04:13;99045.31;;;12.08;86.98
71239;BME280;61342;51.442;7.370;2022-12-24T00:05:14;99047.41;;;12.07;86.82
71239;BME280;61342;51.442;7.370;2022-12-24T00:06:20;99051.84;;;12.08;87.07
71239;BME280;61342;51.442;7.370;2022-12-24T00:07:21;99050.28;;;12.07;86.98
71239;BME280;61342;51.442;7.370;2022-12-24T00:08:21;99040.69;;;12.05;86.69
71239;BME280;61342;51.442;7.370;2022-12-24T00:09:21;99047.19;;;11.98;86.76
71239;BME280;61342;51.442;7.370;2022-12-24T00:10:22;99051.38;;;11.97;86.99
71239;BME280;61342;51.442;7.370;2022-12-24T00:11:22;99045.44;;;11.95;86.50
71239;BME280;61342;51.442;7.370;2022-12-24T00:12:22;99046.59;;;12.00;86.69
71239;BME280;61342;51.442;7.370;2022-12-24T00:13:23;99044.47;;;11.93;86.74
71239;BME280;61342;51.442;7.370;2022-12-24T00:14:23;99063.31;;;12.01;87.04
71239;BME280;61342;51.442;7.370;2022-12-24T00:15:24;99072.16;;;12.03;86.72
71239;BME280;61342;51.442;7.370;2022-12-24T00:16:24;99059.47;;;11.99;86.76
71239;BME280;61342;51.442;7.370;2022-12-24T00:17:24;99064.88;;;12.02;86.76
71239;BME280;61342;51.442;7.370;2022-12-24T00:18:25;99073.69;;;12.04;86.87
71239;BME280;61342;51.442;7.370;2022-12-24T00:19:25;99078.50;;;12.02;86.42
71239;BME280;61342;51.442;7.370;2022-12-24T00:20:26;99076.38;;;12.02;86.91
71239;BME280;61342;51.442;7.370;2022-12-24T00:21:26;99070.16;;;11.91;86.79
71239;BME280;61342;51.442;7.370;2022-12-24T00:22:26;99071.94;;;11.94;86.84
71239;BME280;61342;51.442;7.370;2022-12-24T00:23:27;99076.38;;;12.02;86.74
71239;BME280;61342;51.442;7.370;2022-12-24T00:24:27;99084.78;;;11.93;86.92
71239;BME280;61342;51.442;7.370;2022-12-24T00:25:28;99072.28;;;11.90;86.60
71239;BME280;61342;51.442;7.370;2022-12-24T00:26:28;99091.34;;;12.01;86.49
71239;BME280;61342;51.442;7.370;2022-12-24T00:27:29;99090.78;;;12.02;86.53
71239;BME280;61342;51.442;7.370;2022-12-24T00:28:29;99106.50;;;12.01;86.79
71239;BME280;61342;51.442;7.370;2022-12-24T00:29:30;99092.13;;;12.01;86.39
71239;BME280;61342;51.442;7.370;2022-12-24T00:30:31;99083.28;;;11.99;86.28
71239;BME280;61342;51.442;7.370;2022-12-24T00:31:32;99087.44;;;11.91;86.75
71239;BME280;61342;51.442;7.370;2022-12-24T00:32:32;99093.84;;;11.97;86.45
71239;BME280;61342;51.442;7.370;2022-12-24T00:33:32;99077.28;;;11.90;86.54
71239;BME280;61342;51.442;7.370;2022-12-24T00:34:33;99085.34;;;11.91;86.34
71239;BME280;61342;51.442;7.370;2022-12-24T00:35:34;99103.03;;;11.95;86.51
71239;BME280;61342;51.442;7.370;2022-12-24T00:36:34;99098.78;;;11.89;86.62
71239;BME280;61342;51.442;7.370;2022-12-24T00:37:34;99097.84;;;11.94;86.49
71239;BME280;61342;51.442;7.370;2022-12-24T00:38:35;99105.91;;;11.95;86.50
71239;BME280;61342;51.442;7.370;2022-12-24T00:39:35;99085.13;;;11.89;86.27
71239;BME280;61342;51.442;7.370;2022-12-24T00:40:35;99105.34;;;11.97;86.34
71239;BME280;61342;51.442;7.370;2022-12-24T00:41:36;99085.53;;;11.86;86.27
71239;BME280;61342;51.442;7.370;2022-12-24T00:42:36;99097.06;;;11.93;86.09
71239;BME280;61342;51.442;7.370;2022-12-24T00:43:36;99086.47;;;11.88;86.05
71239;BME280;61342;51.442;7.370;2022-12-24T00:44:37;99105.13;;;11.95;86.52
71239;BME280;61342;51.442;7.370;2022-12-24T00:45:37;99095.09;;;11.88;86.44
71239;BME280;61342;51.442;7.370;2022-12-24T00:46:39;99110.31;;;11.96;86.14
71239;BME280;61342;51.442;7.370;2022-12-24T00:47:40;99100.50;;;11.92;86.09
71239;BME280;61342;51.442;7.370;2022-12-24T00:48:40;99109.38;;;11.94;85.93
71239;BME280;61342;51.442;7.370;2022-12-24T00:49:40;99100.09;;;11.88;85.99
71239;BME280;61342;51.442;7.370;2022-12-24T00:50:41;99107.41;;;11.89;85.74
71239;BME280;61342;51.442;7.370;2022-12-24T00:51:41;99087.97;;;11.82;85.79
71239;BME280;61342;51.442;7.370;2022-12-24T00:52:42;99110.88;;;11.87;86.14
71239;BME280;61342;51.442;7.370;2022-12-24T00:53:42;99098.22;;;11.90;85.59
71239;BME280;61342;51.442;7.370;2022-12-24T00:54:42;99117.22;;;11.93;86.00
71239;BME280;61342;51.442;7.370;2022-12-24T00:55:43;99108.59;;;11.93;85.79
71239;BME280;61342;51.442;7.370;2022-12-24T00:56:43;99125.88;;;11.93;85.75
71239;BME280;61342;51.442;7.370;2022-12-24T00:57:43;99129.31;;;11.92;85.54
71239;BME280;61342;51.442;7.370;2022-12-24T00:58:44;99123.78;;;11.94;85.68
71239;BME280;61342;51.442;7.370;2022-12-24T00:59:44;99122.97;;;11.93;85.24
71239;BME280;61342;51.442;7.370;2022-12-24T01:00:44;99141.59;;;11.92;85.82
71239;BME280;61342;51.442;7.370;2022-12-24T01:01:45;99123.38;;;11.90;85.29
71239;BME280;61342;51.442;7.370;2022-12-24T01:02:45;99127.00;;;11.90;85.31
71239;BME280;61342;51.442;7.370;2022-12-24T01:03:46;99132.94;;;11.92;85.09
71239;BME280;61342;51.442;7.370;2022-12-24T01:04:47;99145.03;;;11.91;85.26
71239;BME280;61342;51.442;7.370;2022-12-24T01:06:12;99141.41;;;11.90;84.93
71239;BME280;61342;51.442;7.370;2022-12-24T01:07:13;99136.97;;;11.89;84.88
71239;BME280;61342;51.442;7.370;2022-12-24T01:08:13;99137.75;;;11.90;84.88
71239;BME280;61342;51.442;7.370;2022-12-24T01:09:14;99133.69;;;11.85;84.91
71239;BME280;61342;51.442;7.370;2022-12-24T01:10:17;99136.22;;;11.89;84.58
71239;BME280;61342;51.442;7.370;2022-12-24T01:11:18;99142.53;;;11.87;84.65
71239;BME280;61342;51.442;7.370;2022-12-24T01:12:19;99139.84;;;11.89;84.33
71239;BME280;61342;51.442;7.370;2022-12-24T01:13:19;99135.44;;;11.88;84.42
71239;BME280;61342;51.442;7.370;2022-12-24T01:14:20;99142.31;;;11.85;84.36
71239;BME280;61342;51.442;7.370;2022-12-24T01:15:20;99134.81;;;11.82;84.24
71239;BME280;61342;51.442;7.370;2022-12-24T01:16:20;99141.97;;;11.89;84.32
71239;BME280;61342;51.442;7.370;2022-12-24T01:17:21;99147.50;;;11.87;84.31
71239;BME280;61342;51.442;7.370;2022-12-24T01:18:22;99144.63;;;11.87;84.27
71239;BME280;61342;51.442;7.370;2022-12-24T01:19:23;99148.09;;;11.85;84.00
71239;BME280;61342;51.442;7.370;2022-12-24T01:20:23;99145.44;;;11.87;84.46
71239;BME280;61342;51.442;7.370;2022-12-24T01:21:26;99146.75;;;11.86;84.16
71239;BME280;61342;51.442;7.370;2022-12-24T01:22:26;99139.44;;;11.85;84.19
71239;BME280;61342;51.442;7.370;2022-12-24T01:23:28;99151.75;;;11.86;84.05
71239;BME280;61342;51.442;7.370;2022-12-24T01:24:28;99163.28;;;11.86;84.15
71239;BME280;61342;51.442;7.370;2022-12-24T01:25:28;99156.72;;;11.85;83.97
71239;BME280;61342;51.442;7.370;2022-12-24T01:26:29;99164.03;;;11.86;83.78
71239;BME280;61342;51.442;7.370;2022-12-24T01:27:29;99161.72;;;11.85;83.88
71239;BME280;61342;51.442;7.370;2022-12-24T01:28:31;99164.03;;;11.86;83.92
71239;BME280;61342;51.442;7.370;2022-12-24T01:29:31;99176.88;;;11.85;83.89
71239;BME280;61342;51.442;7.370;2022-12-24T01:30:32;99168.25;;;11.85;83.77
71239;BME280;61342;51.442;7.370;2022-12-24T01:31:32;99166.50;;;11.82;83.94
71239;BME280;61342;51.442;7.370;2022-12-24T01:32:32;99179.75;;;11.85;83.68
71239;BME280;61342;51.442;7.370;2022-12-24T01:33:33;99171.69;;;11.84;83.68
71239;BME280;61342;51.442;7.370;2022-12-24T01:34:33;99195.28;;;11.82;83.67
71239;BME280;61342;51.442;7.370;2022-12-24T01:35:33;99185.31;;;11.83;83.75
71239;BME280;61342;51.442;7.370;2022-12-24T01:36:35;99175.31;;;11.84;83.75
71239;BME280;61342;51.442;7.370;2022-12-24T01:37:35;99190.28;;;11.83;83.68
71239;BME280;61342;51.442;7.370;2022-12-24T01:38:36;99178.59;;;11.81;83.98
71239;BME280;61342;51.442;7.370;2022-12-24T01:39:36;99190.66;;;11.79;83.65
71239;BME280;61342;51.442;7.370;2022-12-24T01:40:38;99189.53;;;11.82;83.60
71239;BME280;61342;51.442;7.370;2022-12-24T01:41:57;99177.94;;;11.75;83.60
71239;BME280;61342;51.442;7.370;2022-12-24T01:43:18;99179.69;;;11.78;83.59
71239;BME280;61342;51.442;7.370;2022-12-24T01:44:32;99195.84;;;11.81;83.86
71239;BME280;61342;51.442;7.370;2022-12-24T01:45:41;99194.88;;;11.78;83.55
71239;BME280;61342;51.442;7.370;2022-12-24T01:46:42;99183.34;;;11.78;83.78
71239;BME280;61342;51.442;7.370;2022-12-24T01:47:42;99190.44;;;11.77;84.22
71239;BME280;61342;51.442;7.370;2022-12-24T01:48:46;99194.09;;;11.78;83.74
71239;BME280;61342;51.442;7.370;2022-12-24T01:50:00;99204.66;;;11.75;83.68
71239;BME280;61342;51.442;7.370;2022-12-24T01:52:23;99199.44;;;11.74;83.96
71239;BME280;61342;51.442;7.370;2022-12-24T01:53:26;99192.72;;;11.71;83.98
71239;BME280;61342;51.442;7.370;2022-12-24T01:54:49;99200.56;;;11.71;83.69
71239;BME280;61342;51.442;7.370;2022-12-24T01:55:50;99211.31;;;11.70;83.77
71239;BME280;61342;51.442;7.370;2022-12-24T01:56:56;99198.47;;;11.71;83.94
71239;BME280;61342;51.442;7.370;2022-12-24T01:57:58;99197.91;;;11.73;83.89
71239;BME280;61342;51.442;7.370;2022-12-24T01:59:02;99186.31;;;11.65;83.97
71239;BME280;61342;51.442;7.370;2022-12-24T02:00:08;99211.31;;;11.70;83.78
71239;BME280;61342;51.442;7.370;2022-12-24T02:01:11;99221.50;;;11.71;83.78
71239;BME280;61342;51.442;7.370;2022-12-24T02:02:12;99207.13;;;11.71;83.69
71239;BME280;61342;51.442;7.370;2022-12-24T02:03:13;99204.22;;;11.71;83.93
71239;BME280;61342;51.442;7.370;2022-12-24T02:04:25;99202.25;;;11.66;83.83
71239;BME280;61342;51.442;7.370;2022-12-24T02:06:31;99224.91;;;11.70;84.02
71239;BME280;61342;51.442;7.370;2022-12-24T02:07:32;99214.75;;;11.69;83.98
71239;BME280;61342;51.442;7.370;2022-12-24T02:08:33;99217.63;;;11.69;84.07
71239;BME280;61342;51.442;7.370;2022-12-24T02:09:39;99213.22;;;11.68;83.64
71239;BME280;61342;51.442;7.370;2022-12-24T02:10:40;99205.34;;;11.68;83.72
71239;BME280;61342;51.442;7.370;2022-12-24T02:11:41;99195.88;;;11.60;83.62
71239;BME280;61342;51.442;7.370;2022-12-24T02:12:44;99216.84;;;11.68;83.73
71239;BME280;61342;51.442;7.370;2022-12-24T02:13:51;99215.34;;;11.67;83.75
71239;BME280;61342;51.442;7.370;2022-12-24T02:14:52;99217.00;;;11.63;83.30
71239;BME280;61342;51.442;7.370;2022-12-24T02:17:41;99239.25;;;11.62;83.55
71239;BME280;61342;51.442;7.370;2022-12-24T02:30:52;99255.69;;;11.54;83.87
71239;BME280;61342;51.442;7.370;2022-12-24T02:33:14;99264.09;;;11.52;83.95
71239;BME280;61342;51.442;7.370;2022-12-24T02:35:32;99269.66;;;11.51;83.78
71239;BME280;61342;51.442;7.370;2022-12-24T02:36:39;99279.63;;;11.50;83.93
71239;BME280;61342;51.442;7.370;2022-12-24T02:38:03;99298.19;;;11.48;84.00
71239;BME280;61342;51.442;7.370;2022-12-24T02:39:10;99262.34;;;11.50;84.15
71239;BME280;61342;51.442;7.370;2022-12-24T02:41:22;99284.06;;;11.51;84.13
71239;BME280;61342;51.442;7.370;2022-12-24T02:42:28;99278.28;;;11.51;84.44
71239;BME280;61342;51.442;7.370;2022-12-24T02:43:36;99286.13;;;11.50;84.15
71239;BME280;61342;51.442;7.370;2022-12-24T02:44:49;99281.38;;;11.52;84.04
71239;BME280;61342;51.442;7.370;2022-12-24T02:45:55;99277.28;;;11.48;84.21
71239;BME280;61342;51.442;7.370;2022-12-24T02:46:58;99280.91;;;11.48;84.30
71239;BME280;61342;51.442;7.370;2022-12-24T02:48:00;99274.63;;;11.50;84.09
71239;BME280;61342;51.442;7.370;2022-12-24T02:49:00;99291.56;;;11.53;84.32
71239;BME280;61342;51.442;7.370;2022-12-24T02:50:03;99296.00;;;11.54;84.23
71239;BME280;61342;51.442;7.370;2022-12-24T02:51:06;99311.69;;;11.53;84.05
71239;BME280;61342;51.442;7.370;2022-12-24T02:52:32;99295.00;;;11.52;84.26
71239;BME280;61342;51.442;7.370;2022-12-24T02:53:34;99301.50;;;11.52;83.89
71239;BME280;61342;51.442;7.370;2022-12-24T02:54:34;99284.06;;;11.51;84.50
71239;BME280;61342;51.442;7.370;2022-12-24T03:00:03;99301.41;;;11.45;84.38
71239;BME280;61342;51.442;7.370;2022-12-24T03:08:57;99302.75;;;11.44;84.30
71239;BME280;61342;51.442;7.370;2022-12-24T03:11:17;99297.00;;;11.44;84.41
71239;BME280;61342;51.442;7.370;2022-12-24T03:12:23;99291.81;;;11.43;84.62
71239;BME280;61342;51.442;7.370;2022-12-24T03:13:27;99302.38;;;11.48;84.49
71239;BME280;61342;51.442;7.370;2022-12-24T03:14:28;99301.88;;;11.49;84.38
71239;BME280;61342;51.442;7.370;2022-12-24T03:15:30;99302.38;;;11.48;84.74
71239;BME280;61342;51.442;7.370;2022-12-24T03:16:31;99301.63;;;11.47;84.74
71239;BME280;61342;51.442;7.370;2022-12-24T03:17:35;99294.88;;;11.45;84.59
71239;BME280;61342;51.442;7.370;2022-12-24T03:18:39;99304.50;;;11.47;84.79
71239;BME280;61342;51.442;7.370;2022-12-24T03:19:41;99298.19;;;11.48;84.53
71239;BME280;61342;51.442;7.370;2022-12-24T03:20:45;99306.28;;;11.50;84.88
71239;BME280;61342;51.442;7.370;2022-12-24T03:21:48;99296.63;;;11.48;84.77
71239;BME280;61342;51.442;7.370;2022-12-24T03:22:49;99292.00;;;11.45;85.11
71239;BME280;61342;51.442;7.370;2022-12-24T03:23:50;99297.41;;;11.48;84.86
71239;BME280;61342;51.442;7.370;2022-12-24T03:24:50;99283.59;;;11.47;84.36
71239;BME280;61342;51.442;7.370;2022-12-24T03:25:51;99306.06;;;11.48;84.73
71239;BME280;61342;51.442;7.370;2022-12-24T03:26:51;99301.63;;;11.47;84.80
71239;BME280;61342;51.442;7.370;2022-12-24T03:27:54;99302.38;;;11.48;84.65
71239;BME280;61342;51.442;7.370;2022-12-24T03:28:55;99296.63;;;11.48;84.67
71239;BME280;61342;51.442;7.370;2022-12-24T03:29:56;99294.53;;;11.48;84.92
71239;BME280;61342;51.442;7.370;2022-12-24T03:31:00;99296.63;;;11.48;84.71
71239;BME280;61342;51.442;7.370;2022-12-24T03:32:03;99303.94;;;11.48;84.87
71239;BME280;61342;51.442;7.370;2022-12-24T03:33:03;99303.94;;;11.48;84.94
71239;BME280;61342;51.442;7.370;2022-12-24T03:34:04;99302.38;;;11.48;84.55
71239;BME280;61342;51.442;7.370;2022-12-24T03:35:06;99309.69;;;11.48;84.93
71239;BME280;61342;51.442;7.370;2022-12-24T03:36:08;99313.91;;;11.48;84.77
71239;BME280;61342;51.442;7.370;2022-12-24T03:37:08;99308.13;;;11.48;84.94
71239;BME280;61342;51.442;7.370;2022-12-24T03:38:09;99312.03;;;11.50;84.92
71239;BME280;61342;51.442;7.370;2022-12-24T03:39:09;99317.78;;;11.50;85.01
71239;BME280;61342;51.442;7.370;2022-12-24T03:40:10;99313.69;;;11.46;84.91
71239;BME280;61342;51.442;7.370;2022-12-24T03:41:10;99329.31;;;11.50;85.19
71239;BME280;61342;51.442;7.370;2022-12-24T03:42:11;99319.16;;;11.49;85.00
71239;BME280;61342;51.442;7.370;2022-12-24T03:43:11;99318.88;;;11.47;84.89
71239;BME280;61342;51.442;7.370;2022-12-24T03:44:12;99328.53;;;11.50;84.93
71239;BME280;61342;51.442;7.370;2022-12-24T03:45:12;99327.78;;;11.49;84.92
71239;BME280;61342;51.442;7.370;2022-12-24T03:46:12;99329.63;;;11.47;84.96
71239;BME280;61342;51.442;7.370;2022-12-24T03:47:13;99317.03;;;11.50;85.01
71239;BME280;61342;51.442;7.370;2022-12-24T03:48:13;99315.81;;;11.45;84.82
71239;BME280;61342;51.442;7.370;2022-12-24T03:49:14;99316.78;;;11.48;84.91
71239;BME280;61342;51.442;7.370;2022-12-24T03:50:14;99316.78;;;11.48;85.22
71239;BME280;61342;51.442;7.370;2022-12-24T03:51:20;99312.56;;;11.48;84.85
71239;BME280;61342;51.442;7.370;2022-12-24T03:52:20;99325.09;;;11.51;84.88
71239;BME280;61342;51.442;7.370;2022-12-24T03:53:21;99317.34;;;11.46;84.89
71239;BME280;61342;51.442;7.370;2022-12-24T03:54:21;99328.53;;;11.50;84.90
71239;BME280;61342;51.442;7.370;2022-12-24T03:55:22;99338.94;;;11.52;85.12
71239;BME280;61342;51.442;7.370;2022-12-24T03:56:23;99323.78;;;11.52;85.10
71239;BME280;61342;51.442;7.370;2022-12-24T03:57:23;99318.03;;;11.52;85.18
71239;BME280;61342;51.442;7.370;2022-12-24T03:58:24;99333.97;;;11.53;84.94
71239;BME280;61342;51.442;7.370;2022-12-24T03:59:24;99325.88;;;11.51;85.16
71239;BME280;61342;51.442;7.370;2022-12-24T04:00:26;99332.72;;;11.48;85.18
71239;BME280;61342;51.442;7.370;2022-12-24T04:01:27;99337.59;;;11.53;85.01
71239;BME280;61342;51.442;7.370;2022-12-24T04:02:27;99335.28;;;11.52;85.06
71239;BME280;61342;51.442;7.370;2022-12-24T04:03:28;99333.19;;;11.52;84.88
71239;BME280;61342;51.442;7.370;2022-12-24T04:04:28;99316.00;;;11.47;85.00
71239;BME280;61342;51.442;7.370;2022-12-24T04:05:28;99318.31;;;11.48;84.98
71239;BME280;61342;51.442;7.370;2022-12-24T04:06:29;99334.50;;;11.51;84.93
71239;BME280;61342;51.442;7.370;2022-12-24T04:07:31;99312.13;;;11.45;84.97
71239;BME280;61342;51.442;7.370;2022-12-24T04:08:32;99330.53;;;11.54;85.10
71239;BME280;61342;51.442;7.370;2022-12-24T04:09:32;99323.00;;;11.51;85.46
71239;BME280;61342;51.442;7.370;2022-12-24T04:10:33;99307.38;;;11.47;84.99
71239;BME280;61342;51.442;7.370;2022-12-24T04:11:33;99324.78;;;11.54;84.93
71239;BME280;61342;51.442;7.370;2022-12-24T04:12:33;99320.34;;;11.53;84.92
71239;BME280;61342;51.442;7.370;2022-12-24T04:13:34;99322.22;;;11.51;85.43
71239;BME280;61342;51.442;7.370;2022-12-24T04:14:34;99319.00;;;11.54;85.11
71239;BME280;61342;51.442;7.370;2022-12-24T04:15:35;99323.22;;;11.53;85.14
71239;BME280;61342;51.442;7.370;2022-12-24T04:16:35;99310.59;;;11.44;85.37
71239;BME280;61342;51.442;7.370;2022-12-24T04:17:36;99319.00;;;11.54;85.06
71239;BME280;61342;51.442;7.370;2022-12-24T04:18:37;99315.91;;;11.52;85.27
71239;BME280;61342;51.442;7.370;2022-12-24T04:19:38;99337.59;;;11.53;85.29
71239;BME280;61342;51.442;7.370;2022-12-24T04:20:38;99315.03;;;11.45;85.39
71239;BME280;61342;51.442;7.370;2022-12-24T04:21:38;99332.59;;;11.54;85.24
71239;BME280;61342;51.442;7.370;2022-12-24T04:22:39;99342.78;;;11.55;85.27
71239;BME280;61342;51.442;7.370;2022-12-24T04:23:40;99339.72;;;11.53;85.19
71239;BME280;61342;51.442;7.370;2022-12-24T04:24:40;99346.44;;;11.55;85.37
71239;BME280;61342;51.442;7.370;2022-12-24T04:25:41;99337.81;;;11.55;85.22
71239;BME280;61342;51.442;7.370;2022-12-24T04:26:41;99337.81;;;11.55;85.64
71239;BME280;61342;51.442;7.370;2022-12-24T04:27:41;99339.34;;;11.56;85.45
71239;BME280;61342;51.442;7.370;2022-12-24T04:28:42;99335.50;;;11.54;85.58
71239;BME280;61342;51.442;7.370;2022-12-24T04:29:42;99330.66;;;11.49;85.55
71239;BME280;61342;51.442;7.370;2022-12-24T04:30:43;99340.69;;;11.55;85.44
71239;BME280;61342;51.442;7.370;2022-12-24T04:31:43;99339.72;;;11.53;85.55
71239;BME280;61342;51.442;7.370;2022-12-24T04:32:43;99342.03;;;11.54;85.39
71239;BME280;61342;51.442;7.370;2022-12-24T04:33:45;99347.78;;;11.54;85.64
71239;BME280;61342;51.442;7.370;2022-12-24T04:34:45;99337.03;;;11.55;85.64
71239;BME280;61342;51.442;7.370;2022-12-24T04:35:45;99345.13;;;11.56;85.56
71239;BME280;61342;51.442;7.370;2022-12-24T04:36:46;99335.84;;;11.51;85.89
71239;BME280;61342;51.442;7.370;2022-12-24T04:37:46;99342.22;;;11.56;85.91
71239;BME280;61342;51.442;7.370;2022-12-24T04:38:47;99349.31;;;11.55;85.99
71239;BME280;61342;51.442;7.370;2022-12-24T04:39:47;99349.31;;;11.55;85.79
71239;BME280;61342;51.442;7.370;2022-12-24T04:40:48;99346.44;;;11.55;86.01
71239;BME280;61342;51.442;7.370;2022-12-24T04:41:48;99355.06;;;11.55;85.99
71239;BME280;61342;51.442;7.370;2022-12-24T04:42:49;99341.81;;;11.52;85.83
71239;BME280;61342;51.442;7.370;2022-12-24T04:43:53;99356.63;;;11.56;86.04
71239;BME280;61342;51.442;7.370;2022-12-24T04:44:53;99349.88;;;11.54;86.04
71239;BME280;61342;51.442;7.370;2022-12-24T04:45:54;99362.63;;;11.58;85.98
71239;BME280;61342;51.442;7.370;2022-12-24T04:46:55;99355.06;;;11.55;86.11
71239;BME280;61342;51.442;7.370;2022-12-24T04:47:55;99364.69;;;11.58;86.01
71239;BME280;61342;51.442;7.370;2022-12-24T04:48:56;99361.81;;;11.58;86.02
71239;BME280;61342;51.442;7.370;2022-12-24T04:49:57;99368.13;;;11.56;86.21
71239;BME280;61342;51.442;7.370;2022-12-24T04:51:01;99362.38;;;11.56;86.16
71239;BME280;61342;51.442;7.370;2022-12-24T04:52:01;99361.94;;;11.52;86.16
71239;BME280;61342;51.442;7.370;2022-12-24T04:53:02;99363.94;;;11.57;86.19
71239;BME280;61342;51.442;7.370;2022-12-24T04:54:02;99354.53;;;11.57;86.14
71239;BME280;61342;51.442;7.370;2022-12-24T04:55:03;99358.19;;;11.57;86.01
71239;BME280;61342;51.442;7.370;2022-12-24T04:56:07;99348.88;;;11.51;85.91
71239;BME280;61342;51.442;7.370;2022-12-24T04:57:08;99354.66;;;11.51;86.39
71239;BME280;61342;51.442;7.370;2022-12-24T04:58:08;99353.56;;;11.54;86.47
71239;BME280;61342;51.442;7.370;2022-12-24T04:59:08;99359.50;;;11.56;86.29
71239;BME280;61342;51.442;7.370;2022-12-24T05:00:09;99359.72;;;11.58;86.20
71239;BME280;61342;51.442;7.370;2022-12-24T05:01:21;99356.19;;;11.52;86.10
71239;BME280;61342;51.442;7.370;2022-12-24T05:02:22;99366.81;;;11.57;86.18
71239;BME280;61342;51.442;7.370;2022-12-24T05:03:22;99363.72;;;11.55;86.36
71239;BME280;61342;51.442;7.370;2022-12-24T05:04:22;99366.06;;;11.57;86.03
71239;BME280;61342;51.442;7.370;2022-12-24T05:05:23;99361.06;;;11.57;86.08
71239;BME280;61342;51.442;7.370;2022-12-24T05:06:27;99361.81;;;11.58;86.56
71239;BME280;61342;51.442;7.370;2022-12-24T05:07:28;99358.94;;;11.58;86.23
71239;BME280;61342;51.442;7.370;2022-12-24T05:08:28;99358.50;;;11.54;86.43
71239;BME280;61342;51.442;7.370;2022-12-24T05:09:28;99364.50;;;11.56;86.35
71239;BME280;61342;51.442;7.370;2022-12-24T05:10:29;99372.56;;;11.57;86.59
71239;BME280;61342;51.442;7.370;2022-12-24T05:11:29;99382.75;;;11.58;86.74
71239;BME280;61342;51.442;7.370;2022-12-24T05:12:30;99369.69;;;11.57;86.60
71239;BME280;61342;51.442;7.370;2022-12-24T05:13:30;99368.13;;;11.56;86.53
71239;BME280;61342;51.442;7.370;2022-12-24T05:14:31;99369.69;;;11.57;86.60
71239;BME280;61342;51.442;7.370;2022-12-24T05:15:31;99370.81;;;11.54;86.56
71239;BME280;61342;51.442;7.370;2022-12-24T05:16:31;99358.19;;;11.57;86.64
71239;BME280;61342;51.442;7.370;2022-12-24T05:17:32;99371.03;;;11.56;86.60
71239;BME280;61342;51.442;7.370;2022-12-24T05:18:32;99379.66;;;11.56;86.58
71239;BME280;61342;51.442;7.370;2022-12-24T05:19:32;99391.16;;;11.56;86.77
71239;BME280;61342;51.442;7.370;2022-12-24T05:20:33;99363.84;;;11.50;87.02
71239;BME280;61342;51.442;7.370;2022-12-24T05:21:33;99374.59;;;11.50;86.70
71239;BME280;61342;51.442;7.370;2022-12-24T05:22:34;99366.06;;;11.44;86.96
71239;BME280;61342;51.442;7.370;2022-12-24T05:23:53;99383.09;;;11.55;87.15
71239;BME280;61342;51.442;7.370;2022-12-24T05:25:12;99380.78;;;11.53;86.95
71239;BME280;61342;51.442;7.370;2022-12-24T05:26:36;99379.22;;;11.52;86.96
71239;BME280;61342;51.442;7.370;2022-12-24T05:27:39;99375.03;;;11.53;86.89
71239;BME280;61342;51.442;7.370;2022-12-24T05:28:39;99385.97;;;11.55;87.31
71239;BME280;61342;51.442;7.370;2022-12-24T05:29:39;99375.69;;;11.47;86.94
71239;BME280;61342;51.442;7.370;2022-12-24T05:30:39;99386.72;;;11.55;86.87
71239;BME280;61342;51.442;7.370;2022-12-24T05:31:41;99392.50;;;11.55;87.07
71239;BME280;61342;51.442;7.370;2022-12-24T05:32:42;99384.66;;;11.56;87.01
71239;BME280;61342;51.442;7.370;2022-12-24T05:33:42;99378.09;;;11.55;87.06
71239;BME280;61342;51.442;7.370;2022-12-24T05:34:43;99376.56;;;11.54;87.04
71239;BME280;61342;51.442;7.370;2022-12-24T05:35:43;99378.66;;;11.54;87.25
71239;BME280;61342;51.442;7.370;2022-12-24T05:36:44;99373.25;;;11.51;87.03
71239;BME280;61342;51.442;7.370;2022-12-24T05:37:44;99387.72;;;11.58;87.05
71239;BME280;61342;51.442;7.370;2022-12-24T05:38:45;99362.81;;;11.48;86.97
71239;BME280;61342;51.442;7.370;2022-12-24T05:39:45;99369.03;;;11.51;87.27
71239;BME280;61342;51.442;7.370;2022-12-24T05:40:45;99377.91;;;11.53;87.13
71239;BME280;61342;51.442;7.370;2022-12-24T05:41:46;99388.28;;;11.56;87.01
71239;BME280;61342;51.442;7.370;2022-12-24T05:42:46;99387.16;;;11.59;87.24
71239;BME280;61342;51.442;7.370;2022-12-24T05:43:47;99401.56;;;11.59;86.95
71239;BME280;61342;51.442;7.370;2022-12-24T05:44:47;99393.72;;;11.60;87.28
71239;BME280;61342;51.442;7.370;2022-12-24T05:45:47;99391.16;;;11.56;87.25
71239;BME280;61342;51.442;7.370;2022-12-24T05:46:48;99394.47;;;11.60;87.11
71239;BME280;61342;51.442;7.370;2022-12-24T05:47:48;99394.69;;;11.62;87.13
71239;BME280;61342;51.442;7.370;2022-12-24T05:48:49;99390.28;;;11.61;87.15
71239;BME280;61342;51.442;7.370;2022-12-24T05:49:50;99397.78;;;11.64;86.89
71239;BME280;61342;51.442;7.370;2022-12-24T05:50:50;99394.69;;;11.62;87.11
71239;BME280;61342;51.442;7.370;2022-12-24T05:51:50;99386.41;;;11.59;87.08
71239;BME280;61342;51.442;7.370;2022-12-24T05:52:51;99394.91;;;11.64;87.19
71239;BME280;61342;51.442;7.370;2022-12-24T05:53:51;99399.34;;;11.65;87.19
71239;BME280;61342;51.442;7.370;2022-12-24T05:54:51;99393.16;;;11.61;87.18
71239;BME280;61342;51.442;7.370;2022-12-24T05:55:52;99406.66;;;11.66;87.08
71239;BME280;61342;51.442;7.370;2022-12-24T05:56:52;99407.78;;;11.63;87.09
71239;BME280;61342;51.442;7.370;2022-12-24T05:57:52;99398.22;;;11.68;87.30
71239;BME280;61342;51.442;7.370;2022-12-24T05:58:53;99393.72;;;11.60;87.32
71239;BME280;61342;51.442;7.370;2022-12-24T05:59:53;99399.56;;;11.67;87.29
71239;BME280;61342;51.442;7.370;2022-12-24T06:00:54;99395.56;;;11.70;87.24